Decoded Metar for PAVL (KIVALINA in AK, USA) (IATA:KVL) | Meteo·Mobile Aviation Weather
aviador You're here:

PAVL Decoded Metar

KIVALINA in AK, USA
Report Time2018-12-16 03:53:00
UTC Time2018-12-16 04:33:28
Flight Rules vfr VFR
Wind020° at 09 kt
W.Decomp.*RWY 30: 3.8 kt HW 8.2 kt RCW
W.Rank020° ranks 1
Current wind is below 020° avg. (13.8)
Visibility9999 m
Phenomena:N/A
Clouds:N/A
Expected CloudBase > 1,200 ft AGL from Temp-Dew spread
CeilingNone
Temp-23°C (ISA -38)
Dew Point-26°C (77% RH)
AAT-30.0°C
QNH1003 hPa
Density Alt-4,531 ft
Elevation10 ft
Report Wrong Elevation
Raw Report
PAVL 160353Z AUTO 02009KT 8SM CLR M23/M26 A2963 RMK AO2 SLP035
T12281261 TSNO $=

Extra information for PAVL:More info

Metar Taf Metar & Taf Last 4 Metars F.Rules Stats Wind Profile Meteogram Temp Stats Airport Information Weather charts Add Link Nearby VenuesMetar ALERT Operation Metar Decoded Social comments

AIRNAV info for PAVL